KONM

Socorro Municipal Airport

Socorro, New Mexico, USA
METAR KONM 181235Z AUTO 01003KT 10SM SCT039 BKN049 OVC110 06/03 A3003 RMK AO2 T00560027
Observed Flight Rules
Dec-18 @ 12:35 UTC (33 minutes ago) Visual Flight Rules
Wind Visibility Clouds
10° at 3 knots 10 miles
  • Scattered at 3,900' AGL
  • Broken at 4,900' AGL
  • Overcast at 11,000' AGL
Temperatures Readings
Current 6°C / 43°F
Dewpoint 3°C / 37°F
Humidity 81%
Altimeter 30.03" Hg
Pressure 1017 hPa
Elevation 1410
METAR KONM 181235Z AUTO 01003KT 10SM SCT039 BKN049 OVC110 06/03 A3003 RMK AO2 T00560027
Observed Flight Rules
Dec-18 @ 12:35 UTC
(33 minutes ago)
VFR
Wind Visibility
10° at 3 knots 10 miles
Clouds
  • Scattered at 3,900' AGL
  • Broken at 4,900' AGL
  • Overcast at 11,000' AGL
Temperature Dewpoint
6°C / 43°F 3°C / 37°F
Humidity Altimeter Pressure
81% 30.03" Hg 1017 hPa